Time;durP1;ratioP1;P1;durP2;ratioP2;P2;SDS_P1;SDS_P2;PMS_P1;PMS_P2;Temp;Humidity;BMP_temperature;BMP_pressure;BME280_temperature;BME280_humidity;BME280_pressure;Samples;Min_cycle;Max_cycle;Signal;HPM_P1;HPM_P2
2021/10/16 00:00:06;;;;;;;9.35;4.55;;;;;;;5.44;100.00;102155.06;5232364;28;20108;-70
2021/10/16 00:02:38;;;;;;;9.45;4.60;;;;;;;5.34;100.00;102165.03;5228115;28;20026;-70
2021/10/16 00:05:09;;;;;;;8.15;4.70;;;;;;;5.33;100.00;102167.66;5230227;28;20027;-70
2021/10/16 00:07:40;;;;;;;10.60;4.82;;;;;;;5.24;100.00;102168.91;5230023;28;20053;-70
2021/10/16 00:10:12;;;;;;;11.18;5.38;;;;;;;5.22;100.00;102170.69;5232649;28;20017;-69
2021/10/16 00:12:43;;;;;;;12.45;5.03;;;;;;;5.28;100.00;102174.81;5232528;28;20479;-70
2021/10/16 00:15:14;;;;;;;9.13;4.13;;;;;;;5.25;100.00;102175.78;5229470;28;20025;-70
2021/10/16 00:17:46;;;;;;;8.40;4.70;;;;;;;5.28;100.00;102175.66;5231142;28;20032;-69
2021/10/16 00:20:17;;;;;;;9.63;4.57;;;;;;;5.29;100.00;102177.34;5232291;28;20017;-70
2021/10/16 00:22:48;;;;;;;10.75;4.88;;;;;;;5.26;100.00;102169.66;5228484;28;20144;-70
2021/10/16 00:25:19;;;;;;;9.15;4.70;;;;;;;5.26;100.00;102171.41;5231715;28;20022;-70
2021/10/16 00:27:51;;;;;;;10.30;4.50;;;;;;;5.30;100.00;102173.84;5231433;28;20065;-70
2021/10/16 00:30:22;;;;;;;13.73;4.75;;;;;;;5.27;100.00;102170.53;5231907;28;20017;-70
2021/10/16 00:32:53;;;;;;;10.75;4.13;;;;;;;5.27;100.00;102173.13;5232655;28;20029;-70
2021/10/16 00:35:25;;;;;;;12.20;4.68;;;;;;;5.29;100.00;102171.28;5232871;28;20030;-70
2021/10/16 00:37:56;;;;;;;11.30;4.75;;;;;;;5.23;100.00;102161.19;5232514;28;20010;-69
2021/10/16 00:40:27;;;;;;;11.23;4.72;;;;;;;5.22;100.00;102173.28;5231209;28;20029;-69
2021/10/16 00:42:59;;;;;;;7.68;4.20;;;;;;;5.15;100.00;102160.63;5230429;28;20307;-70
2021/10/16 00:45:30;;;;;;;10.55;4.85;;;;;;;5.22;100.00;102157.72;5232775;28;20013;-69
2021/10/16 00:48:02;;;;;;;9.93;4.45;;;;;;;5.22;100.00;102164.66;5235251;28;20033;-70
2021/10/16 00:50:34;;;;;;;7.97;4.50;;;;;;;5.19;100.00;102160.47;5233751;28;20051;-70
2021/10/16 00:53:05;;;;;;;9.00;4.70;;;;;;;5.20;100.00;102156.09;5236984;28;20033;-70
2021/10/16 00:55:36;;;;;;;10.43;5.13;;;;;;;5.09;100.00;102154.78;5236521;28;20021;-70
2021/10/16 00:58:09;;;;;;;10.15;5.53;;;;;;;5.03;100.00;102160.22;5234078;28;20025;-70
2021/10/16 01:00:40;;;;;;;9.40;4.47;;;;;;;5.08;100.00;102154.84;5234925;28;20665;-70
2021/10/16 01:03:11;;;;;;;9.23;4.40;;;;;;;5.04;100.00;102161.94;5236630;28;20032;-70
2021/10/16 01:05:43;;;;;;;11.10;4.50;;;;;;;5.01;100.00;102159.44;5236017;28;20463;-70
2021/10/16 01:08:15;;;;;;;8.82;4.45;;;;;;;5.03;100.00;102155.03;5234885;28;20108;-69
2021/10/16 01:10:46;;;;;;;8.48;4.63;;;;;;;5.00;100.00;102155.16;5236653;28;20515;-70
2021/10/16 01:13:18;;;;;;;11.30;4.70;;;;;;;4.98;100.00;102159.56;5234815;28;20032;-69
2021/10/16 01:15:50;;;;;;;10.70;4.88;;;;;;;5.00;100.00;102154.28;5233531;28;20040;-70
2021/10/16 01:18:23;;;;;;;12.68;5.20;;;;;;;4.98;100.00;102151.78;5234561;28;20030;-69
2021/10/16 01:21:03;;;;;;;10.35;5.22;;;;;;;5.08;100.00;102144.47;5235947;28;20025;-70
2021/10/16 01:23:36;;;;;;;8.63;5.05;;;;;;;4.99;100.00;102145.66;5235632;28;20033;-70
2021/10/16 01:26:07;;;;;;;11.15;5.35;;;;;;;5.01;100.00;102135.22;5235989;28;20310;-69
2021/10/16 01:28:39;;;;;;;9.75;4.85;;;;;;;5.02;100.00;102144.69;5229734;28;20025;-70
2021/10/16 01:31:10;;;;;;;12.85;4.97;;;;;;;5.03;100.00;102148.97;5234458;28;20041;-70
2021/10/16 01:33:42;;;;;;;11.60;4.93;;;;;;;4.98;100.00;102143.13;5235609;28;20026;-70
2021/10/16 01:36:13;;;;;;;12.43;5.00;;;;;;;5.02;100.00;102140.34;5234064;28;20087;-69
2021/10/16 01:38:45;;;;;;;9.35;4.63;;;;;;;4.98;100.00;102138.78;5233955;28;20029;-70
2021/10/16 01:41:16;;;;;;;11.05;5.13;;;;;;;4.96;100.00;102138.00;5234491;28;20152;-70
2021/10/16 01:43:47;;;;;;;11.90;4.72;;;;;;;4.91;100.00;102131.31;5233414;28;20037;-69
2021/10/16 01:46:19;;;;;;;13.32;4.90;;;;;;;4.90;100.00;102132.22;5234375;28;20493;-69
2021/10/16 01:48:50;;;;;;;9.82;4.38;;;;;;;4.87;100.00;102133.19;5235380;28;20030;-69
2021/10/16 01:51:21;;;;;;;11.88;5.03;;;;;;;4.81;100.00;102129.09;5236257;28;20048;-69
2021/10/16 01:53:52;;;;;;;11.85;4.45;;;;;;;4.85;100.00;102135.00;5233884;28;20033;-69
2021/10/16 01:56:24;;;;;;;8.15;4.55;;;;;;;4.72;100.00;102128.59;5234701;28;20276;-69
2021/10/16 01:58:55;;;;;;;9.35;4.55;;;;;;;4.79;100.00;102130.06;5234697;28;20475;-70
2021/10/16 02:01:26;;;;;;;11.77;4.65;;;;;;;4.74;100.00;102130.25;5231576;28;20406;-70
2021/10/16 02:03:57;;;;;;;10.88;4.55;;;;;;;4.75;100.00;102137.13;5234921;28;20096;-69
2021/10/16 02:06:29;;;;;;;10.18;4.57;;;;;;;4.77;100.00;102134.44;5232969;28;20044;-70
2021/10/16 02:09:00;;;;;;;10.52;4.80;;;;;;;4.65;100.00;102130.59;5234942;28;20025;-69
2021/10/16 02:11:32;;;;;;;10.25;4.32;;;;;;;4.60;100.00;102124.75;5233036;28;20052;-70
2021/10/16 02:14:04;;;;;;;11.57;5.20;;;;;;;4.68;100.00;102137.41;5235175;28;20037;-69
2021/10/16 02:16:36;;;;;;;9.43;4.57;;;;;;;4.69;100.00;102131.31;5234320;28;20032;-70
2021/10/16 02:19:07;;;;;;;8.38;3.90;;;;;;;4.68;100.00;102134.81;5234141;28;20033;-69
2021/10/16 02:21:38;;;;;;;11.70;4.65;;;;;;;4.66;100.00;102140.09;5234422;28;20028;-69
2021/10/16 02:24:10;;;;;;;9.95;4.72;;;;;;;4.68;100.00;102132.22;5235050;28;20063;-69
2021/10/16 02:26:41;;;;;;;10.30;5.47;;;;;;;4.67;100.00;102136.56;5233589;28;20517;-69
2021/10/16 02:29:13;;;;;;;9.95;5.78;;;;;;;4.64;100.00;102131.50;5235385;28;20471;-69
2021/10/16 02:31:44;;;;;;;10.38;5.68;;;;;;;4.69;100.00;102124.38;5234041;28;20090;-69
2021/10/16 02:34:15;;;;;;;12.68;6.10;;;;;;;4.66;100.00;102139.22;5233574;28;20474;-69
2021/10/16 02:36:46;;;;;;;12.15;5.50;;;;;;;4.68;100.00;102132.22;5233858;28;20025;-70
2021/10/16 02:39:18;;;;;;;11.55;5.75;;;;;;;4.70;100.00;102135.59;5233342;28;20021;-70
2021/10/16 02:41:49;;;;;;;15.75;5.47;;;;;;;4.73;100.00;102146.69;5233637;28;20036;-69
2021/10/16 02:44:21;;;;;;;11.35;5.30;;;;;;;4.76;100.00;102141.41;5232772;28;20029;-70
2021/10/16 02:46:52;;;;;;;10.57;5.18;;;;;;;4.82;100.00;102143.75;5232047;28;20033;-69
2021/10/16 02:49:23;;;;;;;12.05;4.90;;;;;;;4.82;100.00;102140.31;5234256;28;20021;-69
2021/10/16 02:51:55;;;;;;;9.48;5.47;;;;;;;4.84;100.00;102138.50;5231680;28;20104;-69
2021/10/16 02:54:26;;;;;;;9.15;5.30;;;;;;;4.87;100.00;102138.38;5233430;28;20029;-69
2021/10/16 02:56:57;;;;;;;10.80;5.90;;;;;;;4.86;100.00;102136.69;5232623;28;20028;-69
2021/10/16 02:59:28;;;;;;;10.50;5.05;;;;;;;4.95;100.00;102135.47;5234564;28;20483;-70
2021/10/16 03:02:00;;;;;;;11.45;5.88;;;;;;;4.98;100.00;102143.13;5231987;28;20057;-69
2021/10/16 03:04:31;;;;;;;15.07;5.13;;;;;;;5.04;100.00;102137.72;5232494;28;20079;-69
2021/10/16 03:07:02;;;;;;;9.98;4.68;;;;;;;5.01;100.00;102123.09;5233710;28;20032;-70
2021/10/16 03:09:34;;;;;;;7.93;4.82;;;;;;;5.01;100.00;102125.69;5233610;28;20033;-69
2021/10/16 03:12:05;;;;;;;11.70;5.28;;;;;;;5.07;100.00;102135.81;5230799;28;20038;-69
2021/10/16 03:14:36;;;;;;;8.82;4.82;;;;;;;5.12;100.00;102143.44;5234179;28;20065;-69
2021/10/16 03:17:07;;;;;;;8.63;4.80;;;;;;;5.15;100.00;102148.47;5234091;28;20017;-70
2021/10/16 03:19:40;;;;;;;10.93;4.47;;;;;;;5.17;100.00;102143.22;5233080;28;20106;-69
2021/10/16 03:22:11;;;;;;;10.85;4.78;;;;;;;5.19;100.00;102147.47;5233165;28;20084;-69
2021/10/16 03:24:42;;;;;;;8.18;5.07;;;;;;;5.19;100.00;102138.81;5233626;28;20021;-69
2021/10/16 03:27:14;;;;;;;8.10;5.20;;;;;;;5.22;100.00;102146.47;5233693;28;20112;-69
2021/10/16 03:29:45;;;;;;;9.25;5.00;;;;;;;5.24;100.00;102142.91;5231067;28;20112;-69
2021/10/16 03:32:16;;;;;;;8.15;5.07;;;;;;;5.28;100.00;102138.44;5224428;28;20590;-70
2021/10/16 03:34:48;;;;;;;11.02;4.75;;;;;;;5.32;100.00;102148.63;5233425;28;20037;-69
2021/10/16 03:37:19;;;;;;;8.88;4.60;;;;;;;5.30;100.00;102147.88;5233318;28;20018;-69
2021/10/16 03:39:50;;;;;;;8.35;4.53;;;;;;;5.34;100.00;102139.03;5232900;28;20041;-69
2021/10/16 03:42:21;;;;;;;8.35;5.20;;;;;;;5.40;100.00;102137.06;5231925;28;20024;-70
2021/10/16 03:44:53;;;;;;;10.77;4.70;;;;;;;5.44;100.00;102136.88;5231372;28;20068;-70
2021/10/16 03:47:24;;;;;;;11.40;4.72;;;;;;;5.47;100.00;102130.72;5233792;28;20037;-69
2021/10/16 03:49:56;;;;;;;12.98;6.45;;;;;;;5.46;100.00;102136.81;5232266;28;20036;-69
2021/10/16 03:52:27;;;;;;;9.00;5.40;;;;;;;5.50;100.00;102134.03;5233649;28;20060;-70
2021/10/16 03:54:59;;;;;;;9.02;4.55;;;;;;;5.56;100.00;102131.13;5232778;28;20052;-69
2021/10/16 03:57:30;;;;;;;10.68;4.88;;;;;;;5.63;100.00;102133.50;5231815;28;20056;-70
2021/10/16 04:00:03;;;;;;;9.95;5.13;;;;;;;5.65;100.00;102124.72;5229395;28;20048;-69
2021/10/16 04:02:35;;;;;;;;;;;;;;;6.04;100.00;102126.50;5226452;28;20108;-70
2021/10/16 04:05:07;;;;;;;9.60;5.32;;;;;;;5.72;100.00;102131.34;5231483;28;20003;-70
2021/10/16 04:07:39;;;;;;;8.95;4.88;;;;;;;5.73;100.00;102129.59;5231259;28;20119;-69
2021/10/16 04:10:10;;;;;;;10.75;5.47;;;;;;;5.71;100.00;102129.63;5232936;28;20051;-70
2021/10/16 04:12:42;;;;;;;10.60;4.70;;;;;;;5.75;100.00;102128.59;5232054;28;20030;-69
2021/10/16 04:15:13;;;;;;;11.75;5.03;;;;;;;5.75;100.00;102132.94;5232279;28;20029;-70
2021/10/16 04:17:45;;;;;;;9.23;4.72;;;;;;;5.79;100.00;102126.69;5231678;28;20029;-69
2021/10/16 04:20:16;;;;;;;10.88;4.93;;;;;;;5.82;100.00;102127.41;5231284;28;20162;-69
2021/10/16 04:22:48;;;;;;;9.88;5.32;;;;;;;5.88;100.00;102133.28;5235686;28;20030;-69
2021/10/16 04:25:19;;;;;;;8.77;5.00;;;;;;;5.92;100.00;102135.69;5237462;28;20021;-69
2021/10/16 04:27:51;;;;;;;8.77;4.43;;;;;;;5.95;100.00;102130.34;5235215;28;20056;-70
2021/10/16 04:30:22;;;;;;;10.30;5.15;;;;;;;6.00;100.00;102128.38;5236226;28;20410;-70
2021/10/16 04:32:53;;;;;;;12.95;4.80;;;;;;;6.02;100.00;102131.78;5237218;28;20032;-70
2021/10/16 04:35:25;;;;;;;11.35;4.82;;;;;;;6.02;100.00;102128.31;5235822;28;20029;-69
2021/10/16 04:37:56;;;;;;;10.77;4.93;;;;;;;6.04;100.00;102123.88;5234959;28;20025;-70
2021/10/16 04:40:27;;;;;;;17.48;5.05;;;;;;;6.05;100.00;102128.16;5236959;28;20023;-70
2021/10/16 04:43:01;;;;;;;12.32;5.35;;;;;;;6.03;100.00;102117.00;5236876;28;20028;-69
2021/10/16 04:45:33;;;;;;;16.40;6.05;;;;;;;6.13;100.00;102126.06;5236866;28;20529;-69
2021/10/16 04:48:08;;;;;;;13.27;4.80;;;;;;;6.20;100.00;102126.63;5235923;28;20025;-70
2021/10/16 04:50:39;;;;;;;10.52;4.43;;;;;;;6.13;100.00;102114.81;5235307;28;20029;-69
2021/10/16 04:53:10;;;;;;;10.82;4.63;;;;;;;6.17;100.00;102126.75;5236609;28;20033;-70
2021/10/16 04:55:42;;;;;;;11.35;4.55;;;;;;;6.21;100.00;102126.56;5235120;28;20640;-70
2021/10/16 04:58:13;;;;;;;10.88;5.05;;;;;;;6.18;100.00;102123.28;5236814;28;20070;-70
2021/10/16 05:00:44;;;;;;;10.43;4.57;;;;;;;6.19;100.00;102122.34;5235281;28;20041;-70
2021/10/16 05:03:16;;;;;;;9.95;5.07;;;;;;;6.29;100.00;102127.06;5235080;28;20040;-70
2021/10/16 05:05:48;;;;;;;9.05;5.03;;;;;;;6.31;100.00;102133.03;5234634;28;20057;-70
2021/10/16 05:08:19;;;;;;;9.93;4.70;;;;;;;6.35;100.00;102133.72;5235046;28;20041;-70
2021/10/16 05:10:51;;;;;;;13.45;5.32;;;;;;;6.34;100.00;102132.88;5235321;28;20049;-70
2021/10/16 05:13:22;;;;;;;12.55;5.47;;;;;;;6.38;100.00;102133.59;5234084;28;20758;-70
2021/10/16 05:15:53;;;;;;;8.15;4.78;;;;;;;6.40;100.00;102136.13;5234360;28;20030;-70
2021/10/16 05:18:26;;;;;;;12.77;5.03;;;;;;;6.42;100.00;102127.31;5235302;28;20735;-70
2021/10/16 05:20:57;;;;;;;13.90;5.40;;;;;;;6.43;100.00;102128.16;5232998;28;20104;-70
2021/10/16 05:23:28;;;;;;;13.93;5.95;;;;;;;6.41;100.00;102130.00;5236636;28;21152;-70
2021/10/16 05:26:00;;;;;;;11.63;4.85;;;;;;;6.43;100.00;102131.59;5233202;28;20510;-70
2021/10/16 05:28:31;;;;;;;10.75;5.03;;;;;;;6.50;100.00;102137.38;5235740;28;20033;-70
2021/10/16 05:31:02;;;;;;;11.82;4.78;;;;;;;6.49;100.00;102135.69;5233923;28;20021;-70
2021/10/16 05:33:34;;;;;;;12.45;5.55;;;;;;;6.53;100.00;102134.63;5232643;28;20040;-70
2021/10/16 05:36:05;;;;;;;9.63;4.78;;;;;;;6.55;100.00;102138.88;5235470;28;20031;-70
2021/10/16 05:38:36;;;;;;;12.60;4.65;;;;;;;6.55;100.00;102138.00;5235819;28;20064;-70
2021/10/16 05:41:08;;;;;;;8.93;4.82;;;;;;;6.56;100.00;102140.53;5234278;28;20439;-69
2021/10/16 05:43:39;;;;;;;10.88;5.03;;;;;;;6.56;100.00;102140.53;5234135;28;20458;-70
2021/10/16 05:46:11;;;;;;;10.23;5.43;;;;;;;6.55;100.00;102151.00;5235216;28;20494;-70
2021/10/16 05:48:43;;;;;;;13.80;5.03;;;;;;;6.54;100.00;102149.34;5235389;28;20028;-69
2021/10/16 05:51:14;;;;;;;8.68;5.18;;;;;;;6.56;100.00;102147.50;5226690;28;20053;-70
2021/10/16 05:53:45;;;;;;;11.57;5.18;;;;;;;6.59;100.00;102147.34;5230505;28;20036;-70
2021/10/16 05:56:16;;;;;;;11.90;5.45;;;;;;;6.61;100.00;102144.69;5230843;28;20025;-70
2021/10/16 05:58:48;;;;;;;12.60;5.38;;;;;;;6.61;100.00;102144.69;5232802;28;20037;-69
2021/10/16 06:01:19;;;;;;;12.23;4.95;;;;;;;6.54;100.00;102123.28;5231056;28;20024;-70
2021/10/16 06:03:50;;;;;;;12.57;5.78;;;;;;;6.68;100.00;102141.72;5220582;28;20025;-70
2021/10/16 06:06:21;;;;;;;10.70;4.90;;;;;;;6.67;100.00;102140.03;5232584;28;20021;-70
2021/10/16 06:08:53;;;;;;;9.52;5.25;;;;;;;6.66;100.00;102142.69;5235186;28;20029;-70
2021/10/16 06:11:24;;;;;;;14.88;5.60;;;;;;;6.66;100.00;102142.69;5232621;28;20055;-70
2021/10/16 06:13:55;;;;;;;12.98;5.30;;;;;;;6.65;100.00;102141.84;5234946;28;20025;-70
2021/10/16 06:16:26;;;;;;;13.23;5.32;;;;;;;6.73;100.00;102146.69;5235520;28;20021;-70
2021/10/16 06:19:03;;;;;;;9.50;4.82;;;;;;;6.71;100.00;102145.94;5234216;28;20033;-69
2021/10/16 06:21:34;;;;;;;11.05;5.18;;;;;;;6.74;100.00;102135.34;5231086;28;20116;-69
2021/10/16 06:24:06;;;;;;;11.73;5.35;;;;;;;6.81;100.00;102148.00;5234625;28;20052;-70
2021/10/16 06:26:37;;;;;;;11.43;5.97;;;;;;;6.79;100.00;102151.63;5233818;28;20040;-69
2021/10/16 06:29:08;;;;;;;12.68;5.95;;;;;;;6.78;100.00;102144.72;5233624;28;20049;-69
2021/10/16 06:31:40;;;;;;;14.52;5.82;;;;;;;6.83;100.00;102150.56;5233535;28;20556;-69
2021/10/16 06:34:11;;;;;;;13.27;6.68;;;;;;;6.85;100.00;102146.09;5231138;28;20029;-69
2021/10/16 06:36:42;;;;;;;11.25;6.45;;;;;;;6.80;100.00;102148.09;5224821;28;20029;-69
2021/10/16 06:39:14;;;;;;;13.05;6.47;;;;;;;6.85;100.00;102159.13;5225413;28;20161;-69
2021/10/16 06:41:45;;;;;;;16.75;6.00;;;;;;;6.87;100.00;102157.31;5225803;28;20034;-69
2021/10/16 06:44:16;;;;;;;13.07;7.10;;;;;;;6.87;100.00;102157.31;5229824;28;20061;-69
2021/10/16 06:46:47;;;;;;;17.73;7.40;;;;;;;6.91;100.00;102156.25;5234327;28;20096;-71
2021/10/16 06:49:19;;;;;;;15.77;6.82;;;;;;;6.95;100.00;102159.53;5234911;28;20059;-69
2021/10/16 06:51:50;;;;;;;17.17;7.40;;;;;;;6.99;100.00;102159.31;5231612;28;20056;-69
2021/10/16 06:54:21;;;;;;;18.15;7.38;;;;;;;6.99;100.00;102156.72;5233982;28;20023;-69
2021/10/16 06:56:53;;;;;;;16.88;7.30;;;;;;;7.04;100.00;102151.25;5230589;28;20048;-69
2021/10/16 06:59:24;;;;;;;14.32;7.13;;;;;;;7.08;100.00;102165.84;5226970;28;20036;-70
2021/10/16 07:01:55;;;;;;;17.42;7.20;;;;;;;7.18;100.00;102158.41;5227232;28;20036;-69
2021/10/16 07:04:26;;;;;;;16.08;7.13;;;;;;;7.21;100.00;102159.13;5227483;28;20497;-69
2021/10/16 07:06:58;;;;;;;15.85;6.93;;;;;;;7.25;100.00;102159.81;5230075;28;20112;-70
2021/10/16 07:09:29;;;;;;;18.90;6.75;;;;;;;7.29;100.00;102163.94;5234591;28;20029;-69
2021/10/16 07:12:00;;;;;;;17.75;7.05;;;;;;;7.34;100.00;102171.53;5227213;28;20454;-69
2021/10/16 07:14:32;;;;;;;16.27;7.15;;;;;;;7.39;100.00;102173.00;5227411;28;20760;-69
2021/10/16 07:17:03;;;;;;;14.25;7.15;;;;;;;7.44;100.00;102173.59;5232261;28;20029;-70
2021/10/16 07:19:35;;;;;;;22.50;7.03;;;;;;;7.48;100.00;102172.53;5232091;28;20017;-70
2021/10/16 07:22:06;;;;;;;21.17;7.18;;;;;;;7.47;100.00;102172.63;5228473;28;20029;-69
2021/10/16 07:24:37;;;;;;;15.68;6.60;;;;;;;7.52;100.00;102171.44;5230051;28;20365;-69
2021/10/16 07:27:09;;;;;;;14.32;6.88;;;;;;;7.63;100.00;102177.88;5232235;28;20056;-69
2021/10/16 07:29:40;;;;;;;17.80;7.18;;;;;;;7.66;100.00;102178.56;5229454;28;20029;-69
2021/10/16 07:32:12;;;;;;;24.35;7.15;;;;;;;7.69;100.00;102183.66;5229967;28;20033;-70
2021/10/16 07:34:43;;;;;;;16.08;6.07;;;;;;;7.70;100.00;102172.28;5228511;28;20296;-69
2021/10/16 07:37:14;;;;;;;14.68;6.88;;;;;;;7.77;100.00;102181.47;5232771;28;20026;-69
2021/10/16 07:39:45;;;;;;;19.10;7.05;;;;;;;7.84;100.00;102171.56;5233497;28;20475;-69
2021/10/16 07:42:17;;;;;;;15.57;7.07;;;;;;;7.90;100.00;102173.84;5233210;28;20950;-69
2021/10/16 07:44:48;;;;;;;13.50;6.57;;;;;;;7.94;100.00;102177.97;5229312;28;20475;-70
2021/10/16 07:47:19;;;;;;;19.60;6.60;;;;;;;8.05;100.00;102182.63;5232999;28;20116;-69
2021/10/16 07:49:51;;;;;;;18.67;7.35;;;;;;;8.09;100.00;102193.75;5214534;28;20036;-70
2021/10/16 07:52:22;;;;;;;17.98;8.80;;;;;;;8.15;100.00;102183.00;5227832;28;20029;-69
2021/10/16 07:54:54;;;;;;;20.00;8.25;;;;;;;8.18;100.00;102191.53;5231794;28;20028;-69
2021/10/16 07:57:25;;;;;;;16.75;7.15;;;;;;;8.22;100.00;102184.34;5229525;28;20025;-70
2021/10/16 07:59:56;;;;;;;15.18;6.93;;;;;;;8.31;100.00;102191.69;5231002;28;20088;-70
2021/10/16 08:02:27;;;;;;;17.05;7.10;;;;;;;8.37;100.00;102187.91;5232058;28;20032;-69
2021/10/16 08:05:01;;;;;;;23.08;6.65;;;;;;;8.44;100.00;102184.91;5229257;28;20033;-70
2021/10/16 08:07:32;;;;;;;16.88;6.18;;;;;;;8.46;100.00;102187.44;5229252;28;20199;-69
2021/10/16 08:10:04;;;;;;;21.88;7.10;;;;;;;8.54;100.00;102182.66;5230466;28;20542;-70
2021/10/16 08:12:36;;;;;;;16.92;5.97;;;;;;;8.57;100.00;102190.31;5232949;28;20116;-69
2021/10/16 08:15:09;;;;;;;15.40;6.13;;;;;;;8.61;100.00;102185.78;5230519;28;20071;-69
2021/10/16 08:17:40;;;;;;;16.20;6.63;;;;;;;8.75;100.00;102193.66;5229645;28;20032;-69
2021/10/16 08:20:12;;;;;;;17.40;7.15;;;;;;;8.79;100.00;102187.38;5229099;28;20280;-69
2021/10/16 08:22:43;;;;;;;13.77;6.03;;;;;;;8.81;100.00;102184.66;5230782;28;20033;-69
2021/10/16 08:25:14;;;;;;;15.73;6.72;;;;;;;8.92;100.00;102185.75;5231980;28;20024;-69
2021/10/16 08:27:47;;;;;;;17.85;6.55;;;;;;;8.99;100.00;102189.69;5229514;28;20030;-70
2021/10/16 08:30:19;;;;;;;15.55;6.07;;;;;;;9.05;100.00;102190.25;5229326;28;20079;-69
2021/10/16 08:32:50;;;;;;;13.07;5.70;;;;;;;9.08;100.00;102192.72;5231661;28;20029;-69
2021/10/16 08:35:22;;;;;;;15.55;5.68;;;;;;;9.13;100.00;102188.06;5229782;28;20048;-69
2021/10/16 08:37:53;;;;;;;15.35;6.03;;;;;;;9.19;100.00;102196.41;5232801;28;20654;-70
2021/10/16 08:40:25;;;;;;;17.33;6.05;;;;;;;9.20;100.00;102192.00;5229571;28;20033;-70
2021/10/16 08:42:57;;;;;;;13.93;5.45;;;;;;;9.14;100.00;102181.91;5229539;28;20075;-69
2021/10/16 08:45:28;;;;;;;10.68;5.35;;;;;;;9.30;100.00;102198.41;5229870;28;20368;-70
2021/10/16 08:48:03;;;;;;;18.05;5.90;;;;;;;9.42;100.00;102204.69;5227275;28;20387;-69
2021/10/16 08:50:35;;;;;;;16.77;5.70;;;;;;;9.37;100.00;102198.91;5227595;28;20479;-69
2021/10/16 08:53:06;;;;;;;16.08;6.13;;;;;;;9.48;100.00;102197.34;5229210;28;20113;-69
2021/10/16 08:55:38;;;;;;;12.05;5.45;;;;;;;9.52;100.00;102195.38;5229359;28;20471;-69
2021/10/16 08:58:09;;;;;;;13.95;5.78;;;;;;;9.58;100.00;102204.63;5231476;28;20464;-69
2021/10/16 09:00:54;;;;;;;20.83;5.95;;;;;;;9.65;100.00;102208.56;5229775;28;20223;-69
2021/10/16 09:03:29;;;;;;;16.30;5.25;;;;;;;9.67;100.00;102201.50;5228770;28;20084;-69
2021/10/16 09:06:06;;;;;;;17.42;5.38;;;;;;;9.73;100.00;102212.41;5226278;28;20367;-69
2021/10/16 09:08:38;;;;;;;18.30;5.38;;;;;;;9.78;100.00;102208.72;5230064;28;20469;-69
2021/10/16 09:11:11;;;;;;;20.08;5.07;;;;;;;9.87;100.00;102210.75;5229379;28;20133;-69
2021/10/16 09:13:52;;;;;;;15.85;4.43;;;;;;;9.88;100.00;102215.88;5225531;28;20025;-69
2021/10/16 09:16:44;;;;;;;15.45;5.00;;;;;;;10.06;100.00;102218.34;5231945;28;20104;-69
2021/10/16 09:19:27;;;;;;;13.82;4.90;;;;;;;9.96;100.00;102213.69;5227738;28;20048;-69
2021/10/16 09:22:04;;;;;;;12.90;4.93;;;;;;;10.11;100.00;102213.66;5220333;28;20072;-69
2021/10/16 09:24:40;;;;;;;16.52;4.65;;;;;;;10.14;100.00;102219.56;5224981;28;20025;-70
2021/10/16 09:27:20;;;;;;;10.40;4.35;;;;;;;10.18;100.00;102218.44;5228672;28;20034;-69
2021/10/16 09:30:00;;;;;;;10.65;3.92;;;;;;;10.21;100.00;102213.00;5231092;28;20128;-69
2021/10/16 09:32:32;;;;;;;19.58;5.15;;;;;;;10.24;100.00;102215.44;5234375;28;20057;-70
2021/10/16 09:35:08;;;;;;;12.63;4.82;;;;;;;10.32;100.00;102217.63;5232235;28;20054;-69
2021/10/16 09:37:51;;;;;;;11.77;4.32;;;;;;;10.45;100.00;102213.31;5236123;28;20604;-69
2021/10/16 09:40:41;;;;;;;12.05;4.18;;;;;;;10.61;100.00;102213.19;5230107;28;20021;-69
2021/10/16 09:43:20;;;;;;;20.10;4.55;;;;;;;10.62;100.00;102216.66;5235018;28;20491;-70
2021/10/16 09:46:11;;;;;;;19.67;4.95;;;;;;;10.78;100.00;102213.91;5232601;28;20036;-70
2021/10/16 09:48:45;;;;;;;9.35;3.55;;;;;;;10.71;100.00;102210.81;5228392;28;20387;-69
2021/10/16 09:51:18;;;;;;;12.35;3.80;;;;;;;10.83;100.00;102207.41;5206658;28;20046;-69
2021/10/16 09:54:05;;;;;;;14.98;3.88;;;;;;;11.02;100.00;102216.72;5226382;28;20029;-69
2021/10/16 09:56:37;;;;;;;20.50;4.95;;;;;;;10.96;100.00;102217.97;5233371;28;20080;-70
2021/10/16 09:59:10;;;;;;;13.43;3.83;;;;;;;11.11;100.00;102216.97;5230845;28;20021;-70
2021/10/16 10:01:42;;;;;;;12.23;4.07;;;;;;;11.11;100.00;102209.09;5231620;28;20029;-71
2021/10/16 10:04:17;;;;;;;8.82;3.22;;;;;;;11.22;100.00;102211.03;5235226;28;20615;-70
2021/10/16 10:06:49;;;;;;;13.88;3.78;;;;;;;11.31;100.00;102206.94;5229651;28;20041;-70
2021/10/16 10:09:21;;;;;;;10.60;3.22;;;;;;;11.40;100.00;102203.69;5233116;28;20049;-71
2021/10/16 10:11:53;;;;;;;12.85;3.40;;;;;;;11.51;100.00;102206.44;5232792;28;20461;-70
2021/10/16 10:14:25;;;;;;;10.07;4.07;;;;;;;11.61;100.00;102214.56;5231275;28;20373;-70
2021/10/16 10:17:01;;;;;;;9.88;3.25;;;;;;;11.69;100.00;102207.00;5232884;28;20021;-70
2021/10/16 10:19:40;;;;;;;11.27;3.65;;;;;;;11.84;100.00;102216.50;5230253;28;20522;-70
2021/10/16 10:22:17;;;;;;;10.48;3.40;;;;;;;11.90;100.00;102213.47;5227810;28;20115;-69
2021/10/16 10:24:53;;;;;;;12.00;3.85;;;;;;;12.03;100.00;102207.34;5229166;28;20484;-70
2021/10/16 10:27:25;;;;;;;12.40;3.67;;;;;;;12.07;100.00;102207.03;5231494;28;20114;-70
2021/10/16 10:29:57;;;;;;;12.82;3.80;;;;;;;12.19;100.00;102207.97;5233037;28;20544;-70
2021/10/16 10:32:29;;;;;;;15.55;3.40;;;;;;;12.24;100.00;102205.03;5231892;28;20475;-70
2021/10/16 10:35:03;;;;;;;12.40;3.58;;;;;;;12.27;100.00;102205.63;5233205;28;20033;-70
2021/10/16 10:37:49;;;;;;;10.07;3.38;;;;;;;12.43;100.00;102210.69;5232937;28;20045;-70
2021/10/16 10:40:21;;;;;;;10.70;3.10;;;;;;;12.46;100.00;102212.22;5228365;28;20413;-70
2021/10/16 10:42:56;;;;;;;11.07;3.30;;;;;;;12.58;100.00;102203.50;5231509;28;20485;-70
2021/10/16 10:45:31;;;;;;;9.80;3.42;;;;;;;12.63;100.00;102206.63;5234274;28;20487;-70
2021/10/16 10:48:04;;;;;;;12.05;3.65;;;;;;;12.61;100.00;102204.13;5229117;28;20119;-70
2021/10/16 10:50:40;;;;;;;12.00;3.30;;;;;;;12.75;100.00;102197.00;5227416;28;20032;-71
2021/10/16 10:53:12;;;;;;;12.15;3.53;;;;;;;12.72;100.00;102198.06;5232867;28;20578;-70
2021/10/16 10:56:07;;;;;;;11.27;4.00;;;;;;;12.91;100.00;102195.75;5230475;28;20072;-70
2021/10/16 10:58:48;;;;;;;13.75;3.47;;;;;;;13.09;100.00;102185.69;5234728;28;20051;-70
2021/10/16 11:01:41;;;;;;;11.85;3.72;;;;;;;13.12;100.00;102189.88;5231681;28;20376;-70
2021/10/16 11:04:34;;;;;;;11.07;3.13;;;;;;;13.20;100.00;102187.53;5221935;28;20032;-70
2021/10/16 11:07:14;;;;;;;13.35;3.55;;;;;;;13.12;100.00;102188.09;5231425;28;20082;-70
2021/10/16 11:09:45;;;;;;;14.48;4.32;;;;;;;13.20;100.00;102194.59;5231174;28;20541;-70
2021/10/16 11:12:17;;;;;;;11.43;3.35;;;;;;;13.17;100.00;102189.53;5229311;28;20045;-70
2021/10/16 11:14:48;;;;;;;9.70;3.55;;;;;;;13.24;100.00;102185.53;5232132;28;20021;-70
2021/10/16 11:17:20;;;;;;;16.05;3.60;;;;;;;13.35;100.00;102183.78;5228479;28;20037;-70
2021/10/16 11:19:55;;;;;;;10.43;3.22;;;;;;;13.47;100.00;102181.19;5230562;28;20058;-70
2021/10/16 11:22:47;;;;;;;9.57;3.10;;;;;;;13.69;100.00;102180.38;5231914;28;20045;-70
2021/10/16 11:25:30;;;;;;;10.32;3.67;;;;;;;13.68;100.00;102173.44;5206599;28;20029;-70
2021/10/16 11:28:04;;;;;;;9.40;3.17;;;;;;;13.65;100.00;102181.56;5228362;28;20037;-70
2021/10/16 11:30:41;;;;;;;9.73;3.10;;;;;;;13.71;100.00;102175.81;5231303;28;20793;-70
2021/10/16 11:33:16;;;;;;;13.00;3.42;;;;;;;13.78;100.00;102174.41;5229903;28;20452;-70
2021/10/16 11:35:52;;;;;;;7.97;2.67;;;;;;;13.84;100.00;102171.28;5231814;28;20039;-70
2021/10/16 11:38:38;;;;;;;9.30;2.80;;;;;;;13.91;100.00;102169.03;5232657;28;20048;-70
2021/10/16 11:41:10;;;;;;;8.80;2.83;;;;;;;13.93;100.00;102167.09;5231435;28;20039;-70